Time;durP1;ratioP1;P1;durP2;ratioP2;P2;SDS_P1;SDS_P2;PMS_P1;PMS_P2;Temp;Humidity;BMP_temperature;BMP_pressure;BME280_temperature;BME280_humidity;BME280_pressure;Samples;Min_cycle;Max_cycle;Signal;HPM_P1;HPM_P2
2021/04/13 00:01:32;;;;;;;7.35;2.67;;;;;;;4.30;62.88;101102.97;5052542;28;20045;-84
2021/04/13 00:04:20;;;;;;;7.43;2.90;;;;;;;4.24;63.08;101109.09;5053043;28;20053;-84
2021/04/13 00:06:52;;;;;;;4.68;2.85;;;;;;;4.25;63.16;101110.81;5053132;28;20059;-84
2021/04/13 00:09:40;;;;;;;8.93;2.70;;;;;;;4.24;63.19;101109.09;5053022;28;20057;-84
2021/04/13 00:12:14;;;;;;;4.40;2.20;;;;;;;4.22;63.09;101121.25;5053015;28;20103;-84
2021/04/13 00:14:46;;;;;;;6.25;2.53;;;;;;;4.20;63.02;101120.41;5052553;28;20493;-84
2021/04/13 00:17:17;;;;;;;5.88;2.70;;;;;;;4.18;63.17;101114.34;5053639;28;20053;-84
2021/04/13 00:19:51;;;;;;;5.57;2.45;;;;;;;4.15;63.33;101109.19;5056620;28;20053;-84
2021/04/13 00:22:18;;;;;;;9.50;2.67;;;;;;;4.16;63.67;101121.31;5038944;28;20497;-84
2021/04/13 00:24:45;;;;;;;6.47;2.72;;;;;;;4.16;63.62;101113.50;5056131;28;20094;-84
2021/04/13 00:27:15;;;;;;;6.45;2.63;;;;;;;4.15;63.47;101114.38;5038943;28;20053;-84
2021/04/13 00:29:42;;;;;;;5.82;2.40;;;;;;;4.15;63.47;101117.00;5056416;28;20141;-84
2021/04/13 00:32:10;;;;;;;7.40;2.72;;;;;;;4.15;63.53;101114.38;5056712;28;20057;-84
2021/04/13 00:37:12;;;;;;;7.38;2.85;;;;;;;4.16;63.94;101110.91;5056535;28;20053;-85
2021/04/13 00:39:39;;;;;;;4.75;2.60;;;;;;;4.18;64.02;101106.53;5056016;28;20053;-84
2021/04/13 00:42:15;;;;;;;5.55;3.25;;;;;;;4.18;63.79;101106.53;5056254;28;20501;-84
2021/04/13 00:44:49;;;;;;;7.45;2.67;;;;;;;4.17;63.69;101113.50;5055939;28;20049;-84
2021/04/13 00:47:25;;;;;;;4.70;2.05;;;;;;;4.16;63.43;101109.13;5056031;28;20055;-84
2021/04/13 00:49:56;;;;;;;4.85;2.05;;;;;;;4.19;63.33;101112.63;5038295;28;20080;-84
2021/04/13 00:52:47;;;;;;;5.85;2.40;;;;;;;4.17;63.75;101112.63;5038084;28;20049;-84
2021/04/13 00:55:14;;;;;;;5.25;2.05;;;;;;;4.18;63.51;101111.72;5037883;28;20049;-84
2021/04/13 00:57:56;;;;;;;6.32;2.42;;;;;;;4.15;63.74;101111.78;5056145;28;20049;-84
2021/04/13 01:00:30;;;;;;;8.07;2.73;;;;;;;4.15;63.30;101115.22;5038023;28;20053;-84
2021/04/13 01:03:01;;;;;;;4.68;2.35;;;;;;;4.14;63.54;101110.03;5038333;28;20060;-84
2021/04/13 01:05:56;;;;;;;7.25;2.63;;;;;;;4.10;63.85;101113.53;5055616;28;20051;-84
2021/04/13 01:08:38;;;;;;;8.88;2.92;;;;;;;4.13;63.73;101117.00;5053711;28;20053;-86
2021/04/13 01:11:16;;;;;;;5.97;2.53;;;;;;;4.12;63.50;101109.19;5055681;28;20048;-84
2021/04/13 01:13:48;;;;;;;5.18;2.28;;;;;;;4.10;63.82;101105.72;5037802;28;20052;-84
2021/04/13 01:16:17;;;;;;;10.80;2.50;;;;;;;4.09;64.22;101111.81;5055623;28;20382;-84
2021/04/13 01:18:50;;;;;;;9.85;2.40;;;;;;;4.08;63.92;101107.50;5055519;28;20516;-84
2021/04/13 01:21:38;;;;;;;6.70;2.47;;;;;;;4.05;63.89;101116.19;5055157;28;20049;-86
2021/04/13 01:24:12;;;;;;;7.60;2.42;;;;;;;4.06;63.79;101107.50;5055264;28;20057;-84
2021/04/13 01:26:43;;;;;;;6.75;2.40;;;;;;;4.06;63.63;101109.22;5037890;28;20068;-84
2021/04/13 01:29:14;;;;;;;5.65;2.53;;;;;;;4.04;63.75;101111.88;5038014;28;20053;-84
2021/04/13 01:31:52;;;;;;;5.65;2.53;;;;;;;4.03;63.91;101110.13;5055286;28;20052;-84
2021/04/13 01:34:39;;;;;;;7.18;2.30;;;;;;;4.01;63.90;101117.94;5055106;28;20148;-84
2021/04/13 01:37:08;;;;;;;5.40;2.60;;;;;;;4.01;63.91;101117.94;5037410;28;20087;-84
2021/04/13 01:39:44;;;;;;;5.75;2.20;;;;;;;4.00;63.74;101115.38;5037287;28;20490;-84
2021/04/13 01:42:12;;;;;;;7.07;2.90;;;;;;;3.99;64.03;101116.22;5055054;28;20068;-84
2021/04/13 01:44:41;;;;;;;4.20;3.10;;;;;;;3.99;64.30;101111.91;5037059;28;20053;-84
2021/04/13 01:47:10;;;;;;;3.13;2.50;;;;;;;3.98;64.36;101112.78;5037220;28;20099;-84
2021/04/13 01:49:42;;;;;;;5.35;3.03;;;;;;;4.00;64.49;101118.81;5037113;28;20051;-84
2021/04/13 01:52:17;;;;;;;6.57;2.43;;;;;;;4.00;64.75;101118.81;5037042;28;20547;-85
2021/04/13 01:54:44;;;;;;;8.23;2.97;;;;;;;4.04;64.85;101117.09;5037035;28;20044;-84
2021/04/13 01:57:56;;;;;;;7.05;2.88;;;;;;;4.04;64.85;101123.13;5037072;28;20486;-84
2021/04/13 02:00:30;;;;;;;4.60;2.47;;;;;;;4.12;64.81;101119.63;4973394;28;20054;-84
2021/04/13 02:03:12;;;;;;;4.95;3.00;;;;;;;4.16;65.06;101123.94;4957957;28;20058;-84
2021/04/13 02:05:43;;;;;;;3.88;2.35;;;;;;;4.20;65.13;101125.63;5011787;28;20098;-84
2021/04/13 02:08:27;;;;;;;5.97;3.00;;;;;;;4.25;64.90;101125.56;5036952;28;20110;-84
2021/04/13 02:10:53;;;;;;;10.32;2.65;;;;;;;4.29;64.99;101128.16;5036682;28;20127;-85
2021/04/13 02:13:33;;;;;;;4.57;2.30;;;;;;;4.31;64.95;101120.34;5036745;28;20052;-84
2021/04/13 02:16:31;;;;;;;5.28;2.70;;;;;;;4.32;64.76;101131.59;5054341;28;20053;-84
2021/04/13 02:19:00;;;;;;;4.28;2.47;;;;;;;4.35;64.62;101127.25;5048819;28;20049;-84
2021/04/13 02:21:34;;;;;;;4.95;2.38;;;;;;;4.35;64.63;101124.63;5053935;28;20056;-84
2021/04/13 02:24:19;;;;;;;6.63;2.50;;;;;;;4.34;64.49;101135.91;5053960;28;20513;-85
2021/04/13 02:26:52;;;;;;;5.40;2.50;;;;;;;4.33;64.22;101128.13;5054422;28;20049;-84
2021/04/13 02:29:21;;;;;;;4.45;2.42;;;;;;;4.33;64.25;101125.53;5054326;28;20053;-84
2021/04/13 02:31:58;;;;;;;6.25;2.40;;;;;;;4.29;64.08;101127.28;5036433;28;20049;-84
2021/04/13 02:34:37;;;;;;;8.00;2.40;;;;;;;4.27;64.35;101124.69;5053742;28;20132;-85
2021/04/13 02:37:31;;;;;;;4.65;2.42;;;;;;;4.22;64.21;101134.28;5036751;28;20048;-85
2021/04/13 02:40:08;;;;;;;5.75;2.75;;;;;;;4.21;64.37;101132.56;5035754;28;20460;-86
2021/04/13 02:42:38;;;;;;;4.75;2.42;;;;;;;4.21;64.50;101135.19;5036356;28;20045;-86
2021/04/13 02:45:09;;;;;;;5.60;2.40;;;;;;;4.19;64.65;101136.06;5053828;28;20448;-87
2021/04/13 02:47:45;;;;;;;6.35;2.28;;;;;;;4.14;64.67;101128.28;5053609;28;20056;-86
2021/04/13 02:50:16;;;;;;;6.75;2.40;;;;;;;4.15;64.66;101135.25;5052722;28;20060;-87
2021/04/13 02:52:48;;;;;;;6.07;2.50;;;;;;;4.14;64.85;101133.47;5035357;28;20057;-86
2021/04/13 02:55:28;;;;;;;5.80;2.28;;;;;;;4.11;65.06;101131.78;5035962;28;20049;-85
2021/04/13 02:57:59;;;;;;;9.90;2.85;;;;;;;4.14;64.71;101136.97;5053619;28;20049;-86
2021/04/13 03:00:35;;;;;;;7.60;2.60;;;;;;;4.11;64.72;101129.16;5073790;22;20100;-86
2021/04/13 03:03:12;;;;;;;9.57;2.45;;;;;;;4.10;64.96;101132.66;5049273;28;20049;-86
2021/04/13 03:05:39;;;;;;;4.32;2.50;;;;;;;4.12;65.08;101133.50;5032578;28;20056;-86
2021/04/13 03:08:10;;;;;;;5.07;2.50;;;;;;;4.08;65.19;101126.59;5033905;28;20053;-86
2021/04/13 03:10:42;;;;;;;7.78;2.50;;;;;;;4.07;65.08;101131.81;5033506;28;20057;-86
2021/04/13 03:13:12;;;;;;;5.07;2.65;;;;;;;4.04;65.00;101133.56;5032790;28;20049;-85
2021/04/13 03:15:41;;;;;;;4.88;2.40;;;;;;;4.04;64.92;101138.78;5032255;28;20064;-86
2021/04/13 03:18:13;;;;;;;6.10;1.98;;;;;;;4.03;64.98;101133.56;5032627;28;20107;-86
2021/04/13 03:20:43;;;;;;;11.00;2.22;;;;;;;4.02;65.56;101137.94;5033539;28;20061;-86
2021/04/13 03:23:11;;;;;;;5.38;2.63;;;;;;;4.02;65.05;101143.16;5033722;28;20049;-86
2021/04/13 03:25:44;;;;;;;6.10;2.05;;;;;;;4.01;65.53;101137.94;5033256;28;20049;-86
2021/04/13 03:28:13;;;;;;;7.28;2.70;;;;;;;4.01;65.12;101138.78;5032711;28;20464;-86
2021/04/13 03:30:41;;;;;;;7.60;3.10;;;;;;;4.00;64.99;101147.50;5033543;28;20052;-86
2021/04/13 03:33:12;;;;;;;6.28;2.70;;;;;;;3.99;65.17;101150.09;5033679;28;20054;-86
2021/04/13 03:35:38;;;;;;;5.55;2.50;;;;;;;3.99;65.44;101148.38;5033412;28;20049;-86
2021/04/13 03:38:08;;;;;;;6.90;2.28;;;;;;;3.99;65.44;101147.50;5032350;28;20053;-86
2021/04/13 03:40:37;;;;;;;6.35;2.55;;;;;;;3.99;65.55;101145.75;5032079;28;20052;-86
2021/04/13 03:43:06;;;;;;;5.55;2.92;;;;;;;4.00;65.53;101146.63;5033333;28;20490;-86
2021/04/13 03:45:35;;;;;;;4.88;2.53;;;;;;;3.99;65.36;101144.88;5032192;28;20046;-86
2021/04/13 03:48:08;;;;;;;6.88;3.17;;;;;;;3.98;65.50;101143.16;5033194;28;20054;-86
2021/04/13 03:50:39;;;;;;;6.60;3.28;;;;;;;3.97;65.60;101150.13;5032087;28;20486;-86
2021/04/13 03:53:07;;;;;;;11.40;2.78;;;;;;;3.97;65.41;101147.53;5034483;28;20084;-86
2021/04/13 03:55:33;;;;;;;7.25;3.50;;;;;;;3.96;66.06;101145.78;5036046;28;20056;-86
2021/04/13 03:58:23;;;;;;;7.68;3.33;;;;;;;3.92;65.66;101146.66;5036229;28;20383;-86
2021/04/13 04:00:51;;;;;;;7.30;3.08;;;;;;;3.97;65.87;101146.66;5036902;28;20391;-86
2021/04/13 04:03:19;;;;;;;5.80;3.17;;;;;;;3.96;65.74;101148.38;5036057;28;20128;-86
2021/04/13 04:05:52;;;;;;;6.75;2.75;;;;;;;3.96;65.62;101151.00;5036788;28;20103;-86
2021/04/13 04:08:29;;;;;;;4.82;3.00;;;;;;;3.96;65.84;101150.16;5036679;28;20449;-86
2021/04/13 04:10:57;;;;;;;9.32;3.15;;;;;;;3.97;65.71;101149.25;5036928;28;20049;-86
2021/04/13 04:13:37;;;;;;;8.18;3.00;;;;;;;3.96;65.93;101148.38;5035944;28;20115;-86
2021/04/13 04:16:10;;;;;;;5.82;2.67;;;;;;;3.97;65.64;101151.88;5035657;28;20571;-86
2021/04/13 04:18:43;;;;;;;7.15;2.83;;;;;;;3.97;65.78;101155.34;5035971;28;20045;-86
2021/04/13 04:21:36;;;;;;;8.00;2.97;;;;;;;3.94;66.14;101147.53;5035755;28;20060;-85
2021/04/13 04:24:18;;;;;;;7.40;3.03;;;;;;;3.95;65.84;101144.06;5036643;28;20049;-86
2021/04/13 04:26:49;;;;;;;9.68;3.10;;;;;;;3.96;65.80;101144.94;5036878;28;20060;-86
2021/04/13 04:29:30;;;;;;;10.43;2.70;;;;;;;3.93;65.54;101151.03;5035987;28;20060;-86
2021/04/13 04:32:19;;;;;;;7.45;2.67;;;;;;;3.88;66.13;101155.38;5034038;28;20068;-86
2021/04/13 04:34:45;;;;;;;8.82;3.10;;;;;;;3.90;65.42;101151.03;5014197;28;20050;-87
2021/04/13 04:37:34;;;;;;;8.27;3.70;;;;;;;3.85;66.13;101165.84;5015216;28;20112;-87
2021/04/13 04:40:18;;;;;;;6.50;2.95;;;;;;;3.82;65.91;101158.91;4986440;28;20050;-87
2021/04/13 04:42:55;;;;;;;6.60;3.05;;;;;;;3.80;65.72;101159.78;5014848;28;20046;-88
2021/04/13 04:45:56;;;;;;;8.82;3.17;;;;;;;3.75;66.17;101171.13;5014077;28;20469;-87
2021/04/13 04:48:30;;;;;;;4.60;2.42;;;;;;;3.78;66.04;101173.69;5016012;28;20457;-87
2021/04/13 04:51:08;;;;;;;6.40;2.92;;;;;;;3.75;65.88;101178.94;5014836;28;20050;-89
2021/04/13 04:53:36;;;;;;;5.22;2.78;;;;;;;3.74;65.88;101187.59;5014187;28;20058;-87
2021/04/13 04:56:06;;;;;;;9.75;3.83;;;;;;;3.74;66.06;101181.53;5014002;28;20114;-89
2021/04/13 04:58:32;;;;;;;7.30;3.05;;;;;;;3.74;66.18;101184.13;5014745;28;20054;-86
2021/04/13 05:00:59;;;;;;;9.43;3.70;;;;;;;3.73;66.30;101191.06;5015624;28;20413;-88
2021/04/13 05:03:27;;;;;;;7.50;2.78;;;;;;;3.73;66.09;101191.06;5013892;28;20050;-86
2021/04/13 05:05:55;;;;;;;7.00;3.25;;;;;;;3.75;66.54;101193.69;5015318;28;20064;-88
2021/04/13 05:08:22;;;;;;;8.02;3.15;;;;;;;3.75;66.50;101191.94;5014575;28;20059;-89
2021/04/13 05:10:50;;;;;;;10.73;3.50;;;;;;;3.75;66.75;101197.16;5015479;28;20046;-89
2021/04/13 05:13:17;;;;;;;6.95;2.85;;;;;;;3.77;66.16;101204.94;5015819;28;20058;-88
2021/04/13 05:15:43;;;;;;;7.25;3.08;;;;;;;3.77;66.35;101200.59;5013801;28;20458;-88
2021/04/13 05:18:10;;;;;;;12.15;3.38;;;;;;;3.77;66.58;101203.22;5015277;28;20089;-87
2021/04/13 05:20:36;;;;;;;10.07;4.05;;;;;;;3.80;66.29;101204.06;5015037;28;20088;-86
2021/04/13 05:23:02;;;;;;;7.90;3.10;;;;;;;3.81;66.56;101213.63;5013982;28;20049;-87
2021/04/13 05:25:29;;;;;;;8.52;2.85;;;;;;;3.81;66.40;101209.25;5013563;28;20510;-86
2021/04/13 05:27:55;;;;;;;10.18;3.15;;;;;;;3.82;66.71;101217.94;5015086;28;20568;-89
2021/04/13 05:30:22;;;;;;;9.45;3.30;;;;;;;3.83;66.59;101217.94;5014157;28;20058;-89
2021/04/13 05:32:49;;;;;;;5.85;2.97;;;;;;;3.84;66.81;101219.66;5015055;28;20050;-86
2021/04/13 05:35:18;;;;;;;5.93;2.63;;;;;;;3.85;66.69;101220.53;5013057;28;20056;-87
2021/04/13 05:37:44;;;;;;;7.72;3.05;;;;;;;3.89;66.69;101224.88;5015090;28;20519;-87
2021/04/13 05:40:17;;;;;;;10.30;3.00;;;;;;;3.89;66.86;101224.88;5015132;28;20050;-86
2021/04/13 05:42:44;;;;;;;6.15;2.85;;;;;;;3.93;66.83;101229.19;5013735;28;20112;-88
2021/04/13 05:45:14;;;;;;;8.73;2.95;;;;;;;3.94;66.80;101225.69;5014427;28;20518;-86
2021/04/13 05:47:41;;;;;;;5.97;2.50;;;;;;;3.98;66.82;101231.75;5014565;28;20053;-87
2021/04/13 05:50:12;;;;;;;7.20;3.03;;;;;;;3.99;66.79;101233.47;5014895;28;20577;-87
2021/04/13 05:52:38;;;;;;;5.22;2.88;;;;;;;4.02;67.28;101239.56;5015124;28;20406;-87
2021/04/13 05:55:04;;;;;;;10.82;2.70;;;;;;;4.06;67.18;101235.19;5014677;28;20049;-88
2021/04/13 05:57:32;;;;;;;9.43;3.08;;;;;;;4.08;67.01;101251.69;5013601;28;20061;-87
2021/04/13 06:00:01;;;;;;;7.20;2.80;;;;;;;4.11;67.37;101248.19;5014838;28;20058;-87
2021/04/13 06:02:30;;;;;;;9.25;2.75;;;;;;;4.14;67.24;101256.84;5013131;28;20494;-87
2021/04/13 06:04:59;;;;;;;7.30;2.58;;;;;;;4.17;67.17;101256.84;5013106;28;20052;-86
2021/04/13 06:07:25;;;;;;;9.30;2.90;;;;;;;4.21;67.30;101265.50;5013736;28;20411;-87
2021/04/13 06:09:51;;;;;;;7.47;2.80;;;;;;;4.25;67.13;101258.50;5014410;28;20499;-88
2021/04/13 06:12:19;;;;;;;12.35;3.63;;;;;;;4.26;67.25;101261.13;5014512;28;20414;-87
2021/04/13 06:14:45;;;;;;;6.25;3.13;;;;;;;4.32;67.18;101268.03;5013142;28;20058;-86
2021/04/13 06:17:12;;;;;;;7.68;2.58;;;;;;;4.34;67.23;101274.09;5014883;28;20084;-87
2021/04/13 06:19:39;;;;;;;8.82;3.08;;;;;;;4.38;67.56;101267.97;5014569;28;20050;-88
2021/04/13 06:22:05;;;;;;;9.80;3.30;;;;;;;4.42;67.30;101274.06;5014712;28;20073;-87
2021/04/13 06:24:31;;;;;;;10.68;3.53;;;;;;;4.47;67.24;101272.28;5013806;28;20080;-86
2021/04/13 06:26:57;;;;;;;7.47;3.08;;;;;;;4.51;67.21;101278.31;5013788;28;20069;-87
2021/04/13 06:29:33;;;;;;;8.50;2.85;;;;;;;4.55;67.56;101272.22;5012960;28;20050;-86
2021/04/13 06:32:01;;;;;;;7.82;2.83;;;;;;;4.59;67.39;101278.28;5014373;28;20049;-87
2021/04/13 06:34:27;;;;;;;8.60;2.90;;;;;;;4.64;67.61;101279.13;5012399;28;20557;-87
2021/04/13 06:36:53;;;;;;;10.10;3.50;;;;;;;4.68;67.76;101275.63;5014331;28;20052;-87
2021/04/13 06:39:19;;;;;;;12.55;2.83;;;;;;;4.72;67.50;101289.50;5014276;28;20053;-87
2021/04/13 06:41:52;;;;;;;10.43;2.92;;;;;;;4.76;67.83;101288.59;5012971;28;20061;-87
2021/04/13 06:44:49;;;;;;;7.95;2.97;;;;;;;4.81;67.98;101294.63;5013556;28;20053;-87
2021/04/13 06:48:01;;;;;;;8.13;2.53;;;;;;;4.89;68.25;101297.16;5014160;28;20108;-86
2021/04/13 06:50:44;;;;;;;11.73;2.55;;;;;;;4.99;68.33;101314.50;5014238;28;20053;-87
2021/04/13 06:53:17;;;;;;;9.93;2.60;;;;;;;5.09;68.12;101297.88;5013152;28;20068;-87
2021/04/13 06:56:06;;;;;;;5.05;2.40;;;;;;;5.16;68.02;101303.03;5013375;28;20057;-87
2021/04/13 06:59:00;;;;;;;11.90;2.65;;;;;;;5.23;67.78;101302.09;5012496;28;20120;-87
2021/04/13 07:01:43;;;;;;;8.82;2.40;;;;;;;5.32;67.89;101304.63;5012390;28;20050;-87
2021/04/13 07:04:38;;;;;;;9.05;2.22;;;;;;;5.39;67.71;101312.38;5013485;28;20502;-87
2021/04/13 07:07:14;;;;;;;11.37;2.60;;;;;;;5.47;67.59;101302.72;5004193;28;20057;-87
2021/04/13 07:09:49;;;;;;;7.95;2.17;;;;;;;5.55;67.38;101310.47;5013857;28;20650;-86
2021/04/13 07:12:28;;;;;;;9.77;2.60;;;;;;;5.58;67.64;101308.69;5012674;28;20491;-87
2021/04/13 07:15:13;;;;;;;11.52;2.95;;;;;;;5.64;67.59;101312.13;5011973;28;20053;-87
2021/04/13 07:17:45;;;;;;;9.60;2.42;;;;;;;5.70;67.46;101310.31;5012493;28;20054;-87
2021/04/13 07:20:16;;;;;;;9.68;2.45;;;;;;;5.77;67.68;101311.09;5012571;28;20058;-87
2021/04/13 07:22:49;;;;;;;12.10;3.05;;;;;;;5.84;67.25;101320.59;5012572;28;20056;-87
2021/04/13 07:25:27;;;;;;;9.75;1.90;;;;;;;5.90;67.31;101316.19;5013254;28;20054;-87
2021/04/13 07:28:01;;;;;;;7.40;2.42;;;;;;;5.95;67.42;101320.47;5013165;28;20068;-87
2021/04/13 07:30:39;;;;;;;;;;;;;;;6.03;67.06;101322.13;5014201;28;20459;-88
2021/04/13 07:33:10;;;;;;;11.45;2.00;;;;;;;6.11;67.26;101315.97;5013145;28;19925;-90
2021/04/13 07:35:39;;;;;;;15.73;2.60;;;;;;;6.18;67.27;101318.47;5011787;28;20084;-87
2021/04/13 07:38:20;;;;;;;15.80;2.25;;;;;;;6.19;66.79;101318.47;5011947;28;20068;-87
2021/04/13 07:40:53;;;;;;;8.57;1.95;;;;;;;6.28;66.79;101324.44;5011892;28;20495;-87
2021/04/13 07:43:42;;;;;;;8.02;1.77;;;;;;;6.32;66.93;101321.75;5013280;28;20426;-86
2021/04/13 07:46:14;;;;;;;8.60;1.67;;;;;;;6.37;66.49;101327.81;5013188;28;20065;-87
2021/04/13 07:49:01;;;;;;;12.38;2.15;;;;;;;6.40;66.59;101326.91;5011917;28;20050;-87
2021/04/13 07:51:41;;;;;;;7.32;2.35;;;;;;;6.48;66.59;101329.41;5012246;28;20046;-87
2021/04/13 07:54:31;;;;;;;13.57;2.55;;;;;;;6.55;66.83;101317.97;5011589;28;20046;-88
2021/04/13 07:57:25;;;;;;;12.35;2.67;;;;;;;6.61;66.79;101330.06;5011545;28;20058;-87
2021/04/13 08:00:13;;;;;;;11.88;2.35;;;;;;;6.70;66.37;101324.72;5001516;28;20056;-87
2021/04/13 08:02:40;;;;;;;9.38;2.35;;;;;;;6.82;67.33;101334.13;5013237;28;20088;-88
2021/04/13 08:05:09;;;;;;;6.53;1.83;;;;;;;6.93;67.45;101330.47;5012438;28;20052;-86
2021/04/13 08:08:00;;;;;;;5.72;1.52;;;;;;;7.01;67.07;101326.84;5012315;28;20050;-88
2021/04/13 08:10:38;;;;;;;10.88;2.00;;;;;;;7.16;66.75;101336.19;5012078;28;20089;-87
2021/04/13 08:13:09;;;;;;;10.43;1.85;;;;;;;7.30;66.73;101335.09;5011663;28;20426;-87
2021/04/13 08:15:54;;;;;;;10.40;1.70;;;;;;;7.37;65.89;101341.91;5012986;28;20064;-88
2021/04/13 08:18:41;;;;;;;7.63;1.77;;;;;;;7.46;65.27;101338.28;5012966;28;20385;-87
2021/04/13 08:21:16;;;;;;;8.60;1.83;;;;;;;7.54;65.16;101336.38;5013015;28;20046;-86
2021/04/13 08:23:43;;;;;;;8.85;1.40;;;;;;;7.65;66.40;101330.94;5012953;28;20053;-87
2021/04/13 08:26:39;;;;;;;11.57;1.60;;;;;;;7.71;65.18;101336.94;5013083;28;20054;-87
2021/04/13 08:29:40;;;;;;;5.15;1.33;;;;;;;7.84;64.65;101337.59;5012167;28;20054;-87
2021/04/13 08:35:21;;;;;;;5.47;1.60;;;;;;;8.06;64.53;101338.88;5012400;28;20057;-87
2021/04/13 08:37:58;;;;;;;6.85;1.55;;;;;;;8.18;64.50;101340.34;5012268;28;20049;-88
2021/04/13 08:40:49;;;;;;;10.52;1.52;;;;;;;8.27;63.55;101341.06;5015422;28;20454;-88
2021/04/13 08:43:30;;;;;;;11.95;1.77;;;;;;;8.35;63.20;101339.97;5001603;28;20050;-87
2021/04/13 08:46:19;;;;;;;8.40;1.25;;;;;;;8.43;62.95;101338.97;5015687;28;20049;-88
2021/04/13 08:48:58;;;;;;;8.88;2.05;;;;;;;8.54;63.48;101351.88;5015152;28;20447;-88
2021/04/13 08:51:38;;;;;;;8.27;2.05;;;;;;;8.59;62.10;101344.75;5016299;28;20057;-88
2021/04/13 08:54:21;;;;;;;4.68;1.10;;;;;;;8.68;63.04;101354.19;5014213;28;20051;-88
2021/04/13 08:56:56;;;;;;;3.70;1.25;;;;;;;8.71;60.74;101354.97;5014684;28;20514;-88
2021/04/13 08:59:36;;;;;;;8.45;1.17;;;;;;;8.77;60.58;101353.09;5016081;28;20046;-88
2021/04/13 09:02:12;;;;;;;7.35;1.92;;;;;;;8.84;60.78;101352.06;5015713;28;20050;-88
2021/04/13 09:04:39;;;;;;;5.38;1.13;;;;;;;8.95;62.87;101336.03;5014640;28;20050;-87
2021/04/13 09:07:24;;;;;;;5.28;1.30;;;;;;;9.01;60.98;101350.78;5014864;28;20072;-87
2021/04/13 09:10:26;;;;;;;7.18;1.38;;;;;;;9.12;60.02;101349.59;5014410;28;20050;-88
2021/04/13 09:13:19;;;;;;;6.88;1.60;;;;;;;9.23;60.48;101357.22;4990189;28;20053;-88
2021/04/13 09:15:54;;;;;;;6.30;1.00;;;;;;;9.33;60.21;101344.72;5013939;28;20065;-88
2021/04/13 09:18:52;;;;;;;5.57;1.10;;;;;;;9.43;59.49;101357.59;5014601;28;20100;-88
2021/04/13 09:21:25;;;;;;;7.43;1.40;;;;;;;9.54;60.00;101365.22;5013386;28;20046;-85
2021/04/13 09:24:01;;;;;;;6.13;1.30;;;;;;;9.59;59.24;101358.94;5013753;28;20057;-88
2021/04/13 09:26:53;;;;;;;3.13;1.20;;;;;;;9.61;58.24;101359.72;5015178;28;20050;-88
2021/04/13 09:29:42;;;;;;;6.28;1.20;;;;;;;9.65;57.08;101360.53;5005669;28;20054;-88
2021/04/13 09:32:24;;;;;;;5.32;1.30;;;;;;;9.66;56.53;101364.88;5014270;28;20046;-88
2021/04/13 09:34:50;;;;;;;6.18;1.30;;;;;;;9.69;59.81;101354.28;5013134;28;20054;-87
2021/04/13 09:37:31;;;;;;;7.43;1.23;;;;;;;9.70;59.40;101356.00;5014171;28;20056;-88
2021/04/13 09:40:36;;;;;;;4.63;1.10;;;;;;;9.74;58.09;101356.78;5013969;28;20137;-88
2021/04/13 09:43:24;;;;;;;5.60;1.20;;;;;;;9.86;58.06;101351.19;5014989;28;20495;-87
2021/04/13 09:46:01;;;;;;;5.53;1.23;;;;;;;10.02;59.18;101354.22;5013442;28;20533;-87
2021/04/13 09:48:29;;;;;;;9.50;1.40;;;;;;;10.17;58.59;101355.53;5015142;28;20066;-88
2021/04/13 09:50:58;;;;;;;5.13;1.02;;;;;;;10.28;57.89;101357.84;5013659;28;20046;-88
2021/04/13 09:53:44;;;;;;;4.35;0.93;;;;;;;10.35;55.92;101352.44;5013460;28;20053;-88
2021/04/13 09:56:44;;;;;;;5.80;1.00;;;;;;;10.42;56.12;101341.66;5013837;28;20058;-88
2021/04/13 09:59:29;;;;;;;4.68;0.88;;;;;;;10.55;54.41;101341.31;5014977;28;20050;-88
2021/04/13 10:03:09;;;;;;;6.65;1.20;;;;;;;10.68;55.38;101347.03;5014757;28;20499;-87
2021/04/13 10:06:14;;;;;;;6.25;1.08;;;;;;;10.78;54.45;101340.59;4865741;29;20053;-85
2021/04/13 10:09:03;;;;;;;6.82;1.00;;;;;;;10.79;55.25;101341.41;4919809;29;20059;-88
2021/04/13 10:12:18;;;;;;;12.18;1.25;;;;;;;10.71;54.58;101333.78;4919521;29;20047;-88
2021/04/13 10:15:14;;;;;;;3.70;0.90;;;;;;;10.68;54.51;101333.88;4932104;29;20098;-87
2021/04/13 10:18:21;;;;;;;7.03;1.30;;;;;;;10.70;54.88;101318.91;4919021;29;20122;-88
2021/04/13 10:21:30;;;;;;;6.15;1.15;;;;;;;10.82;55.93;101323.75;4919341;29;20508;-87
2021/04/13 10:24:21;;;;;;;3.55;0.95;;;;;;;11.04;57.55;101311.63;4918641;29;20104;-87
2021/04/13 10:27:12;;;;;;;6.72;1.00;;;;;;;11.25;55.34;101317.09;4934843;29;20056;-88
2021/04/13 10:30:14;;;;;;;3.42;1.05;;;;;;;11.47;54.76;101315.41;4934453;29;20143;-90
2021/04/13 10:33:23;;;;;;;4.05;0.85;;;;;;;11.71;55.10;101317.22;4918669;29;20247;-89
2021/04/13 10:36:55;;;;;;;3.95;0.80;;;;;;;11.90;53.62;101314.75;4933538;29;20051;-88
2021/04/13 10:39:43;;;;;;;6.05;1.10;;;;;;;12.04;53.85;101308.94;4933862;29;20047;-88
2021/04/13 10:42:35;;;;;;;4.15;0.85;;;;;;;12.19;52.79;101317.25;4943219;28;20054;-88
2021/04/13 10:45:37;;;;;;;6.95;1.25;;;;;;;12.29;52.92;101301.91;4977831;28;20498;-88
2021/04/13 10:48:18;;;;;;;4.22;0.85;;;;;;;12.34;50.77;101305.22;5013929;28;20046;-89
2021/04/13 10:50:51;;;;;;;7.10;0.98;;;;;;;12.40;53.89;101291.75;5012408;28;20490;-89
2021/04/13 10:53:37;;;;;;;4.38;0.93;;;;;;;12.42;52.22;101289.94;5013673;28;20050;-88
2021/04/13 10:56:11;;;;;;;7.95;1.05;;;;;;;12.58;54.63;101290.19;5012007;28;20518;-87
2021/04/13 10:59:00;;;;;;;4.55;1.27;;;;;;;12.67;51.36;101291.56;5012312;28;20049;-89
2021/04/13 11:01:53;;;;;;;5.15;1.35;;;;;;;12.73;50.94;101296.63;5011733;28;20053;-89
2021/04/13 11:04:42;;;;;;;2.53;0.80;;;;;;;12.73;50.10;101293.09;5012969;28;20054;-88
2021/04/13 11:07:42;;;;;;;5.80;1.00;;;;;;;12.65;49.60;101290.78;5013435;28;20054;-88
2021/04/13 11:10:45;;;;;;;4.25;1.20;;;;;;;12.57;49.58;101288.47;5013326;28;20060;-88
2021/04/13 11:13:29;;;;;;;8.38;1.08;;;;;;;12.53;50.64;101294.78;5013452;28;20046;-88
2021/04/13 11:16:20;;;;;;;2.33;1.00;;;;;;;12.75;53.01;101288.63;5011622;28;20392;-89
2021/04/13 11:19:34;;;;;;;3.90;0.85;;;;;;;13.29;52.65;101282.81;5067930;23;20055;-86
2021/04/13 11:22:25;;;;;;;5.22;1.38;;;;;;;13.91;50.97;101288.00;4969967;28;20565;-86
2021/04/13 11:25:15;;;;;;;4.45;1.08;;;;;;;14.30;48.25;101288.84;5031515;28;20042;-86
2021/04/13 11:28:23;;;;;;;5.53;0.95;;;;;;;14.52;48.94;101276.34;5032016;28;20417;-86
2021/04/13 11:31:19;;;;;;;4.32;1.25;;;;;;;14.78;50.40;101266.25;5007797;28;20046;-86
2021/04/13 11:33:55;;;;;;;3.88;0.95;;;;;;;15.23;53.25;101264.84;4995671;28;20061;-86
2021/04/13 11:36:51;;;;;;;4.07;1.00;;;;;;;15.79;51.04;101265.44;5013469;28;20073;-86
2021/04/13 11:39:40;;;;;;;4.35;1.40;;;;;;;16.39;49.97;101255.97;5011983;28;20057;-86
2021/04/13 11:42:18;;;;;;;3.58;0.80;;;;;;;16.91;47.81;101257.38;5013006;28;20112;-86
2021/04/13 11:45:01;;;;;;;3.50;1.17;;;;;;;17.39;41.32;101251.00;5012891;28;20053;-86
2021/04/13 11:47:37;;;;;;;;;;;;;;;17.91;47.17;101259.28;5012946;28;20058;-86
2021/04/13 11:50:17;;;;;;;2.70;0.77;;;;;;;18.57;46.77;101252.41;5013064;28;19969;-86
2021/04/13 11:53:04;;;;;;;4.70;0.85;;;;;;;19.10;43.94;101252.41;5012068;28;20046;-86
2021/04/13 11:55:31;;;;;;;6.20;1.80;;;;;;;19.60;46.94;101250.78;5012818;28;20053;-86
2021/04/13 11:58:20;;;;;;;2.20;0.85;;;;;;;20.00;43.95;101247.06;5011749;28;20565;-86
2021/04/13 12:00:55;;;;;;;3.80;1.27;;;;;;;20.46;42.19;101250.81;5011934;28;20053;-86
2021/04/13 12:03:24;;;;;;;2.15;0.80;;;;;;;20.89;44.46;101248.56;5013431;28;20054;-86
2021/04/13 12:05:58;;;;;;;2.25;0.90;;;;;;;21.25;41.02;101248.47;5011448;28;20058;-87
2021/04/13 12:08:31;;;;;;;2.15;0.85;;;;;;;21.60;40.66;101237.63;4995793;28;20058;-86
2021/04/13 12:11:07;;;;;;;3.83;0.80;;;;;;;21.95;42.15;101243.81;5013093;28;20050;-86
2021/04/13 12:13:35;;;;;;;2.42;0.90;;;;;;;22.13;37.93;101238.75;5014497;28;20280;-87
2021/04/13 12:16:03;;;;;;;1.45;0.70;;;;;;;22.12;37.99;101241.56;5016404;28;20053;-87
2021/04/13 12:18:35;;;;;;;2.60;0.82;;;;;;;21.80;36.06;101235.19;5016430;28;20498;-87
2021/04/13 12:21:23;;;;;;;2.75;0.88;;;;;;;21.25;35.33;101238.59;5016502;28;20510;-87
2021/04/13 12:23:53;;;;;;;1.48;0.73;;;;;;;20.69;34.68;101237.50;5015874;28;20058;-86
2021/04/13 12:26:39;;;;;;;2.88;0.70;;;;;;;19.88;35.54;101243.44;5017193;28;20096;-86
2021/04/13 12:29:33;;;;;;;4.10;0.80;;;;;;;19.23;36.90;101246.22;5015116;28;20049;-87